createdAt,value
2019-04-30T00:01:25.233Z,8.14
2019-04-30T00:03:59.176Z,9.23
2019-04-30T00:06:27.433Z,8.73
2019-04-30T00:08:57.679Z,5.80
2019-04-30T00:11:26.630Z,8.05
2019-04-30T00:13:58.673Z,9.15
2019-04-30T00:16:25.665Z,7.63
2019-04-30T00:19:00.469Z,9.53
2019-04-30T00:21:27.273Z,7.15
2019-04-30T00:23:56.194Z,7.92
2019-04-30T00:26:25.332Z,8.25
2019-04-30T00:28:56.886Z,5.80
2019-04-30T00:31:27.457Z,9.23
2019-04-30T00:33:57.867Z,10.45
2019-04-30T00:36:28.977Z,8.85
2019-04-30T00:38:56.350Z,7.22
2019-04-30T00:41:25.623Z,7.72
2019-04-30T00:43:55.154Z,9.10
2019-04-30T00:46:27.225Z,9.77
2019-04-30T00:48:56.812Z,11.20
2019-04-30T00:51:26.212Z,9.40
2019-04-30T00:53:55.795Z,7.58
2019-04-30T00:56:28.196Z,10.38
2019-04-30T00:58:57.778Z,5.87
2019-04-30T01:01:37.400Z,8.85
2019-04-30T01:04:08.470Z,9.50
2019-04-30T01:06:37.110Z,9.25
2019-04-30T01:09:08.714Z,8.83
2019-04-30T01:11:39.791Z,9.70
2019-04-30T01:14:06.605Z,9.40
2019-04-30T01:16:35.145Z,8.23
2019-04-30T01:19:07.872Z,9.40
2019-04-30T01:21:34.018Z,11.38
2019-04-30T01:24:02.812Z,8.15
2019-04-30T01:26:31.689Z,10.78
2019-04-30T01:29:02.063Z,6.35
2019-04-30T01:31:31.622Z,8.88
2019-04-30T01:34:05.248Z,10.35
2019-04-30T01:36:31.354Z,8.98
2019-04-30T01:39:00.277Z,8.78
2019-04-30T01:41:31.424Z,9.50
2019-04-30T01:43:59.153Z,11.43
2019-04-30T01:46:29.162Z,10.05
2019-04-30T01:48:58.829Z,10.80
2019-04-30T01:51:28.603Z,10.65
2019-04-30T01:53:57.370Z,5.90
2019-04-30T01:56:30.469Z,11.70
2019-04-30T01:59:06.495Z,10.48
2019-04-30T02:01:38.937Z,7.20
2019-04-30T02:04:08.503Z,13.00
2019-04-30T02:06:39.119Z,11.25
2019-04-30T02:09:09.095Z,11.38
2019-04-30T02:11:38.830Z,7.50
2019-04-30T02:14:09.010Z,8.33
2019-04-30T02:16:39.454Z,9.33
2019-04-30T02:19:09.132Z,11.20
2019-04-30T02:21:38.580Z,8.55
2019-04-30T02:24:08.938Z,7.33
2019-04-30T02:26:38.506Z,10.47
2019-04-30T02:29:09.080Z,11.22
2019-04-30T02:31:40.565Z,6.03
2019-04-30T02:34:13.710Z,8.23
2019-04-30T02:36:43.937Z,9.80
2019-04-30T02:39:12.479Z,11.43
2019-04-30T02:41:42.016Z,8.70
2019-04-30T02:44:11.788Z,10.43
2019-04-30T02:46:43.455Z,10.50
2019-04-30T02:49:12.850Z,8.15
2019-04-30T02:51:44.077Z,10.18
2019-04-30T02:54:23.886Z,9.37
2019-04-30T02:56:53.930Z,11.03
2019-04-30T02:59:22.428Z,8.80
2019-04-30T03:01:51.049Z,8.10
2019-04-30T03:04:19.818Z,5.40
2019-04-30T03:06:50.286Z,12.85
2019-04-30T03:09:20.238Z,10.70
2019-04-30T03:11:49.837Z,13.28
2019-04-30T03:14:20.237Z,10.65
2019-04-30T03:16:56.351Z,12.20
2019-04-30T03:19:32.519Z,13.43
2019-04-30T03:22:02.613Z,9.80
2019-04-30T03:24:31.094Z,10.37
2019-04-30T03:26:59.761Z,14.80
2019-04-30T03:29:30.259Z,11.87
2019-04-30T03:32:02.895Z,13.57
2019-04-30T03:34:32.810Z,8.68
2019-04-30T03:37:01.629Z,6.70
2019-04-30T03:39:30.544Z,15.40
2019-04-30T03:41:59.715Z,12.85
2019-04-30T03:44:31.767Z,12.77
2019-04-30T03:46:59.402Z,11.20
2019-04-30T03:49:29.893Z,10.10
2019-04-30T03:51:59.954Z,13.00
2019-04-30T03:54:29.282Z,9.33
2019-04-30T03:57:00.778Z,11.70
2019-04-30T03:59:30.305Z,11.23
2019-04-30T04:02:12.210Z,11.43
2019-04-30T04:04:39.643Z,13.77
2019-04-30T04:07:25.198Z,12.87
2019-04-30T04:09:55.406Z,7.50
2019-04-30T04:12:30.202Z,12.80
2019-04-30T04:15:00.744Z,9.77
2019-04-30T04:17:31.068Z,10.03
2019-04-30T04:19:59.879Z,7.03
2019-04-30T04:22:30.554Z,11.48
2019-04-30T04:24:59.984Z,17.15
2019-04-30T04:27:30.152Z,11.50
2019-04-30T04:30:01.046Z,15.00
2019-04-30T04:32:30.792Z,16.70
2019-04-30T04:35:00.333Z,14.27
2019-04-30T04:37:30.123Z,15.55
2019-04-30T04:39:59.571Z,13.15
2019-04-30T04:42:32.838Z,12.90
2019-04-30T04:45:00.296Z,13.90
2019-04-30T04:47:30.775Z,15.57
2019-04-30T04:50:00.773Z,15.70
2019-04-30T04:52:31.453Z,14.90
2019-04-30T04:55:00.346Z,11.80
2019-04-30T04:57:30.539Z,17.10
2019-04-30T05:00:06.426Z,13.53
2019-04-30T05:02:32.754Z,17.87
2019-04-30T05:05:01.320Z,19.03
2019-04-30T05:07:29.915Z,19.43
2019-04-30T05:10:00.612Z,14.87
2019-04-30T05:12:29.728Z,16.83
2019-04-30T05:14:59.795Z,19.03
2019-04-30T05:17:29.717Z,17.73
2019-04-30T05:19:58.972Z,19.00
2019-04-30T05:22:29.297Z,13.37
2019-04-30T05:24:58.964Z,22.25
2019-04-30T05:27:27.867Z,24.50
2019-04-30T05:29:56.336Z,20.27
2019-04-30T05:32:24.873Z,22.57
2019-04-30T05:34:53.369Z,23.13
2019-04-30T05:37:22.564Z,21.87
2019-04-30T05:39:51.294Z,21.07
2019-04-30T05:42:19.915Z,18.60
2019-04-30T05:44:49.745Z,20.80
2019-04-30T05:47:19.629Z,12.53
2019-04-30T05:49:48.976Z,17.10
2019-04-30T05:52:19.965Z,22.87
2019-04-30T05:54:48.741Z,25.35
2019-04-30T05:57:19.626Z,23.63
2019-04-30T05:59:48.678Z,25.97
2019-04-30T06:02:19.265Z,24.67
2019-04-30T06:04:50.106Z,20.17
2019-04-30T06:07:19.090Z,22.73
2019-04-30T06:09:51.254Z,15.70
2019-04-30T06:12:33.848Z,19.60
2019-04-30T06:15:20.410Z,21.53
2019-04-30T06:17:59.633Z,16.05
2019-04-30T06:20:21.175Z,12.37
2019-04-30T06:22:52.232Z,21.40
2019-04-30T06:25:31.562Z,13.23
2019-04-30T06:27:52.181Z,15.80
2019-04-30T06:30:20.746Z,19.10
2019-04-30T06:32:49.714Z,21.70
2019-04-30T06:35:19.349Z,17.37
2019-04-30T06:37:48.886Z,23.00
2019-04-30T06:40:19.686Z,27.60
2019-04-30T06:42:49.555Z,25.67
2019-04-30T06:45:19.295Z,19.70
2019-04-30T06:47:48.982Z,19.97
2019-04-30T06:50:19.382Z,28.10
2019-04-30T06:52:56.210Z,19.63
2019-04-30T06:55:19.309Z,23.53
2019-04-30T06:57:49.686Z,23.30
2019-04-30T07:00:20.677Z,17.10
2019-04-30T07:02:49.415Z,12.93
2019-04-30T07:05:18.623Z,20.37
2019-04-30T07:07:48.980Z,22.10
2019-04-30T07:10:20.522Z,24.80
2019-04-30T07:12:50.777Z,22.17
2019-04-30T07:15:19.732Z,21.57
2019-04-30T07:17:49.140Z,21.73
2019-04-30T07:20:19.141Z,28.03
2019-04-30T07:22:52.524Z,26.70
2019-04-30T07:25:19.509Z,26.73
2019-04-30T07:27:50.462Z,21.47
2019-04-30T07:30:19.232Z,25.20
2019-04-30T07:32:48.787Z,24.33
2019-04-30T07:35:19.577Z,20.80
2019-04-30T07:37:49.778Z,22.70
2019-04-30T07:40:19.104Z,29.90
2019-04-30T07:42:49.236Z,27.73
2019-04-30T07:45:19.403Z,18.43
2019-04-30T07:47:49.498Z,18.07
2019-04-30T07:50:21.142Z,21.53
2019-04-30T07:53:01.820Z,18.17
2019-04-30T07:55:19.578Z,22.30
2019-04-30T07:57:50.602Z,20.33
2019-04-30T08:00:19.405Z,18.00
2019-04-30T08:02:59.909Z,23.40
2019-04-30T08:05:36.608Z,24.73
2019-04-30T08:08:17.715Z,17.37
2019-04-30T08:10:35.383Z,20.13
2019-04-30T08:13:10.310Z,24.57
2019-04-30T08:15:34.182Z,19.63
2019-04-30T08:18:05.732Z,20.27
2019-04-30T08:20:32.831Z,19.87
2019-04-30T08:23:13.369Z,20.77
2019-04-30T08:25:31.818Z,18.87
2019-04-30T08:28:00.371Z,20.57
2019-04-30T08:30:30.017Z,24.57
2019-04-30T08:32:59.525Z,23.33
2019-04-30T08:35:29.621Z,24.43
2019-04-30T08:37:59.078Z,22.17
2019-04-30T08:40:29.623Z,16.17
2019-04-30T08:42:59.475Z,16.57
2019-04-30T08:45:31.484Z,17.43
2019-04-30T08:47:59.026Z,16.73
2019-04-30T08:50:29.716Z,15.33
2019-04-30T08:52:59.777Z,19.43
2019-04-30T08:55:30.490Z,20.50
2019-04-30T08:58:09.298Z,20.37
2019-04-30T09:00:29.738Z,20.30
2019-04-30T09:02:59.341Z,23.37
2019-04-30T09:05:35.778Z,15.63
2019-04-30T09:08:05.896Z,16.67
2019-04-30T09:10:35.042Z,21.43
2019-04-30T09:13:03.784Z,20.97
2019-04-30T09:15:32.320Z,21.17
2019-04-30T09:18:06.375Z,21.63
2019-04-30T09:20:31.183Z,22.13
2019-04-30T09:22:59.704Z,21.90
2019-04-30T09:25:28.800Z,26.73
2019-04-30T09:27:58.789Z,17.20
2019-04-30T09:30:29.778Z,22.17
2019-04-30T09:32:59.519Z,18.03
2019-04-30T09:35:30.119Z,17.12
2019-04-30T09:38:01.626Z,23.00
2019-04-30T09:40:32.295Z,23.03
2019-04-30T09:43:00.447Z,17.67
2019-04-30T09:45:29.334Z,19.00
2019-04-30T09:47:59.246Z,18.87
2019-04-30T09:50:28.935Z,23.00
2019-04-30T09:53:00.113Z,22.37
2019-04-30T09:55:29.080Z,18.30
2019-04-30T09:57:58.877Z,24.73
2019-04-30T10:00:29.488Z,20.07
2019-04-30T10:02:59.851Z,19.40
2019-04-30T10:05:29.299Z,19.70
2019-04-30T10:07:59.345Z,23.27
2019-04-30T10:10:29.934Z,21.17
2019-04-30T10:12:59.244Z,22.73
2019-04-30T10:15:44.285Z,22.83
2019-04-30T10:18:12.850Z,25.33
2019-04-30T10:20:44.137Z,21.53
2019-04-30T10:23:12.698Z,24.60
2019-04-30T10:25:41.381Z,22.73
2019-04-30T10:28:10.171Z,28.15
2019-04-30T10:30:39.316Z,28.87
2019-04-30T10:33:10.006Z,24.40
2019-04-30T10:35:38.631Z,18.70
2019-04-30T10:38:07.268Z,24.07
2019-04-30T10:40:35.765Z,14.58
2019-04-30T10:43:04.491Z,20.15
2019-04-30T10:45:33.249Z,22.20
2019-04-30T10:48:01.758Z,21.82
2019-04-30T10:50:30.445Z,25.65
2019-04-30T10:52:59.171Z,31.95
2019-04-30T10:55:28.697Z,28.37
2019-04-30T10:57:59.361Z,16.40
2019-04-30T11:00:39.897Z,21.30
2019-04-30T11:03:19.611Z,24.75
2019-04-30T11:05:41.295Z,21.12
2019-04-30T11:08:10.316Z,24.98
2019-04-30T11:10:39.911Z,26.52
2019-04-30T11:13:08.816Z,19.65
2019-04-30T11:15:39.298Z,21.97
2019-04-30T11:18:07.799Z,30.95
2019-04-30T11:20:36.700Z,25.65
2019-04-30T11:23:14.339Z,24.30
2019-04-30T11:25:37.146Z,24.60
2019-04-30T11:28:06.751Z,25.08
2019-04-30T11:30:38.623Z,27.27
2019-04-30T11:33:07.171Z,27.62
2019-04-30T11:35:35.902Z,25.15
2019-04-30T11:38:04.532Z,22.73
2019-04-30T11:40:36.829Z,21.60
2019-04-30T11:43:03.611Z,22.58
2019-04-30T11:45:52.070Z,24.43
2019-04-30T11:48:20.633Z,29.25
2019-04-30T11:50:49.739Z,21.10
2019-04-30T11:53:25.303Z,29.12
2019-04-30T11:55:49.169Z,26.50
2019-04-30T11:58:21.620Z,12.77
2019-04-30T12:00:49.483Z,22.62
2019-04-30T12:03:19.231Z,30.10
2019-04-30T12:05:49.001Z,28.05
2019-04-30T12:08:31.813Z,24.30
2019-04-30T12:11:01.980Z,18.77
2019-04-30T12:13:31.685Z,28.53
2019-04-30T12:16:01.252Z,21.70
2019-04-30T12:18:29.851Z,31.17
2019-04-30T12:20:58.456Z,28.35
2019-04-30T12:23:26.927Z,24.37
2019-04-30T12:25:55.537Z,21.87
2019-04-30T12:28:24.026Z,16.80
2019-04-30T12:30:52.492Z,27.07
2019-04-30T12:33:21.047Z,25.15
2019-04-30T12:35:51.356Z,28.05
2019-04-30T12:38:19.782Z,23.70
2019-04-30T12:40:48.426Z,34.18
2019-04-30T12:43:16.897Z,26.70
2019-04-30T12:45:45.556Z,32.05
2019-04-30T12:48:20.253Z,29.80
2019-04-30T12:51:06.248Z,21.73
2019-04-30T12:53:37.611Z,23.52
2019-04-30T12:56:27.097Z,20.30
2019-04-30T12:58:56.141Z,14.87
2019-04-30T13:01:24.895Z,23.63
2019-04-30T13:03:58.699Z,24.82
2019-04-30T13:06:24.174Z,20.27
2019-04-30T13:08:53.608Z,31.48
2019-04-30T13:11:23.161Z,32.33
2019-04-30T13:13:52.980Z,23.50
2019-04-30T13:16:21.747Z,33.27
2019-04-30T13:18:50.282Z,33.50
2019-04-30T13:21:18.842Z,29.72
2019-04-30T13:23:47.325Z,32.00
2019-04-30T13:26:18.552Z,37.33
2019-04-30T13:29:06.802Z,28.52
2019-04-30T13:31:35.392Z,32.88
2019-04-30T13:34:21.848Z,33.02
2019-04-30T13:36:50.390Z,24.52
2019-04-30T13:39:20.567Z,28.32
2019-04-30T13:41:59.532Z,31.57
2019-04-30T13:44:29.733Z,18.02
2019-04-30T13:46:58.266Z,23.02
2019-04-30T13:49:30.091Z,22.63
2019-04-30T13:51:57.000Z,26.10
2019-04-30T13:54:25.566Z,24.65
2019-04-30T13:56:54.196Z,22.90
2019-04-30T13:59:22.672Z,25.32
2019-04-30T14:01:51.154Z,30.08
2019-04-30T14:04:24.507Z,24.27
2019-04-30T14:06:57.488Z,33.15
2019-04-30T14:09:30.390Z,29.20
2019-04-30T14:11:58.866Z,29.55
2019-04-30T14:14:29.212Z,27.25
2019-04-30T14:16:58.691Z,27.05
2019-04-30T14:19:29.520Z,21.37
2019-04-30T14:21:58.987Z,25.43
2019-04-30T14:24:27.821Z,28.62
2019-04-30T14:26:56.401Z,23.25
2019-04-30T14:29:24.940Z,23.42
2019-04-30T14:31:53.511Z,28.60
2019-04-30T14:34:22.087Z,28.17
2019-04-30T14:36:50.820Z,23.12
2019-04-30T14:39:20.358Z,24.72
2019-04-30T14:41:51.777Z,21.62
2019-04-30T14:44:21.420Z,20.95
2019-04-30T14:46:54.908Z,23.95
2019-04-30T14:49:34.941Z,28.00
2019-04-30T14:52:04.837Z,22.45
2019-04-30T14:54:35.024Z,24.65
2019-04-30T14:57:07.913Z,20.97
2019-04-30T14:59:52.772Z,23.90
2019-04-30T15:02:25.748Z,24.18
2019-04-30T15:04:54.311Z,21.20
2019-04-30T15:07:22.796Z,23.23
2019-04-30T15:09:51.364Z,20.85
2019-04-30T15:12:19.985Z,20.57
2019-04-30T15:14:49.316Z,25.12
2019-04-30T15:17:18.161Z,21.75
2019-04-30T15:19:48.814Z,25.75
2019-04-30T15:22:18.905Z,23.70
2019-04-30T15:24:49.091Z,18.60
2019-04-30T15:27:19.129Z,15.93
2019-04-30T15:29:56.582Z,25.72
2019-04-30T15:32:18.648Z,21.68
2019-04-30T15:34:48.934Z,20.82
2019-04-30T15:37:21.798Z,22.87
2019-04-30T15:39:49.016Z,22.52
2019-04-30T15:42:19.104Z,25.65
2019-04-30T15:44:49.485Z,25.72
2019-04-30T15:47:19.066Z,24.80
2019-04-30T15:49:49.678Z,21.33
2019-04-30T15:52:18.923Z,18.15
2019-04-30T15:54:49.100Z,23.10
2019-04-30T15:57:18.966Z,18.35
2019-04-30T15:59:47.717Z,19.90
2019-04-30T16:02:18.750Z,22.00
2019-04-30T16:05:05.123Z,17.85
2019-04-30T16:07:35.618Z,20.12
2019-04-30T16:10:14.265Z,16.48
2019-04-30T16:12:44.596Z,21.15
2019-04-30T16:15:13.356Z,20.68
2019-04-30T16:17:43.558Z,19.55
2019-04-30T16:20:12.180Z,18.40
2019-04-30T16:22:40.734Z,24.95
2019-04-30T16:25:09.332Z,16.27
2019-04-30T16:27:37.864Z,19.37
2019-04-30T16:30:06.875Z,18.17
2019-04-30T16:32:35.365Z,23.47
2019-04-30T16:35:05.572Z,17.77
2019-04-30T16:37:34.093Z,20.27
2019-04-30T16:40:02.799Z,20.55
2019-04-30T16:42:31.268Z,23.35
2019-04-30T16:45:00.825Z,24.20
2019-04-30T16:47:29.738Z,18.67
2019-04-30T16:49:58.919Z,18.75
2019-04-30T16:52:29.303Z,21.77
2019-04-30T16:54:57.854Z,21.02
2019-04-30T16:57:29.943Z,19.65
2019-04-30T16:59:56.551Z,17.85
2019-04-30T17:02:26.696Z,22.93
2019-04-30T17:04:56.953Z,17.73
2019-04-30T17:07:28.888Z,23.20
2019-04-30T17:10:10.978Z,18.65
2019-04-30T17:12:51.488Z,23.62
2019-04-30T17:15:21.905Z,23.05
2019-04-30T17:17:50.387Z,18.30
2019-04-30T17:20:20.891Z,13.88
2019-04-30T17:22:49.877Z,17.77
2019-04-30T17:25:19.083Z,19.42
2019-04-30T17:27:47.584Z,15.13
2019-04-30T17:30:19.181Z,16.52
2019-04-30T17:32:49.678Z,15.28
2019-04-30T17:35:19.076Z,20.45
2019-04-30T17:37:47.735Z,22.70
2019-04-30T17:40:19.093Z,19.48
2019-04-30T17:42:47.539Z,18.85
2019-04-30T17:45:16.616Z,23.95
2019-04-30T17:47:45.164Z,20.00
2019-04-30T17:50:14.206Z,21.73
2019-04-30T17:52:42.695Z,16.70
2019-04-30T17:55:11.313Z,20.05
2019-04-30T17:57:40.406Z,13.83
2019-04-30T18:00:18.893Z,23.85
2019-04-30T18:02:42.350Z,20.40
2019-04-30T18:05:11.394Z,22.93
2019-04-30T18:07:40.271Z,20.50
2019-04-30T18:10:10.783Z,16.82
2019-04-30T18:12:39.416Z,19.12
2019-04-30T18:15:12.641Z,22.90
2019-04-30T18:17:42.913Z,22.95
2019-04-30T18:20:25.632Z,19.07
2019-04-30T18:22:58.962Z,17.50
2019-04-30T18:25:32.071Z,19.20
2019-04-30T18:28:02.221Z,17.37
2019-04-30T18:30:32.443Z,19.92
2019-04-30T18:33:01.005Z,22.87
2019-04-30T18:35:29.513Z,17.30
2019-04-30T18:37:58.627Z,21.33
2019-04-30T18:40:27.270Z,20.03
2019-04-30T18:42:55.899Z,18.45
2019-04-30T18:45:24.450Z,18.57
2019-04-30T18:47:53.039Z,16.73
2019-04-30T18:50:21.651Z,18.48
2019-04-30T18:52:52.068Z,19.00
2019-04-30T18:55:20.711Z,14.95
2019-04-30T18:57:56.513Z,19.00
2019-04-30T19:00:36.961Z,15.18
2019-04-30T19:03:05.642Z,15.25
2019-04-30T19:05:34.617Z,16.32
2019-04-30T19:08:04.841Z,15.40
2019-04-30T19:10:44.123Z,14.37
2019-04-30T19:13:30.702Z,19.65
2019-04-30T19:16:23.045Z,16.70
2019-04-30T19:18:48.902Z,18.62
2019-04-30T19:21:17.597Z,15.70
2019-04-30T19:23:46.161Z,18.92
2019-04-30T19:26:14.777Z,15.40
2019-04-30T19:28:43.340Z,15.65
2019-04-30T19:31:12.821Z,21.60
2019-04-30T19:33:41.305Z,14.47
2019-04-30T19:36:09.945Z,14.55
2019-04-30T19:38:38.580Z,17.42
2019-04-30T19:44:20.650Z,15.70
2019-04-30T19:50:22.683Z,17.35
2019-04-30T19:52:51.490Z,13.88
2019-04-30T19:55:20.704Z,15.13
2019-04-30T19:57:51.120Z,15.23
2019-04-30T20:00:20.790Z,15.20
2019-04-30T20:02:49.761Z,17.67
2019-04-30T20:05:19.417Z,14.33
2019-04-30T20:07:49.339Z,16.75
2019-04-30T20:10:19.560Z,17.50
2019-04-30T20:12:49.777Z,15.40
2019-04-30T20:15:21.779Z,18.05
2019-04-30T20:17:49.901Z,15.23
2019-04-30T20:20:18.975Z,16.65
2019-04-30T20:22:47.592Z,17.50
2019-04-30T20:25:16.347Z,18.26
2019-04-30T20:27:44.808Z,15.80
2019-04-30T20:30:13.520Z,16.57
2019-04-30T20:32:42.045Z,14.10
2019-04-30T20:35:10.760Z,17.05
2019-04-30T20:37:56.871Z,19.32
2019-04-30T20:40:27.049Z,16.83
2019-04-30T20:42:55.557Z,14.65
2019-04-30T20:45:24.136Z,19.57
2019-04-30T20:47:52.616Z,19.25
2019-04-30T20:50:21.250Z,19.17
2019-04-30T20:52:49.761Z,17.82
2019-04-30T20:55:18.225Z,17.95
2019-04-30T20:57:46.709Z,17.23
2019-04-30T21:00:16.146Z,18.20
2019-04-30T21:02:44.644Z,19.12
2019-04-30T21:05:13.269Z,16.97
2019-04-30T21:07:41.918Z,20.35
2019-04-30T21:10:10.690Z,18.17
2019-04-30T21:12:39.652Z,20.65
2019-04-30T21:15:09.681Z,19.42
2019-04-30T21:17:38.490Z,20.55
2019-04-30T21:20:09.622Z,23.25
2019-04-30T21:22:38.823Z,19.55
2019-04-30T21:25:09.312Z,21.25
2019-04-30T21:27:40.088Z,19.12
2019-04-30T21:30:12.094Z,19.07
2019-04-30T21:32:51.210Z,23.15
2019-04-30T21:35:24.180Z,22.10
2019-04-30T21:37:54.565Z,21.68
2019-04-30T21:40:23.178Z,20.90
2019-04-30T21:42:51.675Z,22.80
2019-04-30T21:45:20.152Z,19.90
2019-04-30T21:47:56.089Z,21.75
2019-04-30T21:50:19.667Z,21.62
2019-04-30T21:52:49.546Z,19.20
2019-04-30T21:55:19.791Z,19.00
2019-04-30T21:57:49.644Z,19.80
2019-04-30T22:00:34.398Z,20.15
2019-04-30T22:03:04.329Z,21.45
2019-04-30T22:05:32.870Z,23.62
2019-04-30T22:08:01.345Z,18.52
2019-04-30T22:10:29.908Z,17.90
2019-04-30T22:12:58.717Z,17.57
2019-04-30T22:15:27.359Z,21.77
2019-04-30T22:17:55.928Z,18.77
2019-04-30T22:20:24.436Z,23.87
2019-04-30T22:22:52.930Z,17.73
2019-04-30T22:25:21.424Z,18.27
2019-04-30T22:27:49.983Z,21.97
2019-04-30T22:30:18.570Z,18.52
2019-04-30T22:32:47.052Z,19.32
2019-04-30T22:35:26.309Z,18.10
2019-04-30T22:37:56.502Z,18.77
2019-04-30T22:40:25.188Z,20.37
2019-04-30T22:42:53.692Z,17.20
2019-04-30T22:45:23.934Z,18.57
2019-04-30T22:47:52.435Z,22.20
2019-04-30T22:50:20.969Z,20.77
2019-04-30T22:52:49.547Z,19.90
2019-04-30T22:55:18.012Z,18.50
2019-04-30T22:57:46.495Z,20.65
2019-04-30T23:00:18.572Z,20.57
2019-04-30T23:02:58.015Z,20.92
2019-04-30T23:05:26.524Z,19.13
2019-04-30T23:07:55.076Z,18.82
2019-04-30T23:10:23.622Z,21.80
2019-04-30T23:12:52.270Z,18.03
2019-04-30T23:15:21.978Z,20.93
2019-04-30T23:17:50.506Z,17.87
2019-04-30T23:20:18.995Z,19.13
2019-04-30T23:22:47.472Z,20.83
2019-04-30T23:25:16.931Z,23.98
2019-04-30T23:27:45.600Z,22.43
2019-04-30T23:30:14.520Z,21.62
2019-04-30T23:32:43.023Z,20.02
2019-04-30T23:35:12.034Z,22.80
2019-04-30T23:37:40.579Z,18.43
2019-04-30T23:40:27.159Z,20.10
2019-04-30T23:42:56.271Z,20.30
2019-04-30T23:45:24.878Z,21.27
2019-04-30T23:47:53.469Z,19.77
2019-04-30T23:50:22.122Z,24.20
2019-04-30T23:52:50.651Z,22.70
2019-04-30T23:55:19.131Z,20.30
2019-04-30T23:57:47.796Z,22.00
